createdAt,value
2023-05-11T00:02:01.238Z,97844.53
2023-05-11T00:05:04.712Z,97845.88
2023-05-11T00:08:09.285Z,97847.22
2023-05-11T00:11:12.400Z,97848.22
2023-05-11T00:14:15.683Z,97845.94
2023-05-11T00:17:20.542Z,97843.59
2023-05-11T00:20:23.850Z,97844.53
2023-05-11T00:23:28.384Z,97840.34
2023-05-11T00:26:31.487Z,97839.00
2023-05-11T00:29:34.624Z,97834.75
2023-05-11T00:32:37.791Z,97832.66
2023-05-11T00:35:41.184Z,97833.41
2023-05-11T00:38:46.062Z,97830.13
2023-05-11T00:41:49.190Z,97832.25
2023-05-11T00:44:52.320Z,97828.38
2023-05-11T00:47:55.734Z,97837.00
2023-05-11T00:51:00.297Z,97832.91
2023-05-11T00:54:05.039Z,97815.72
2023-05-11T00:57:08.794Z,97832.22
2023-05-11T01:00:13.086Z,97823.06
2023-05-11T01:03:16.707Z,97811.03
2023-05-11T01:06:28.780Z,97827.44
2023-05-11T01:09:44.548Z,97828.22
2023-05-11T01:12:57.931Z,97830.59
2023-05-11T01:16:07.478Z,97824.25
2023-05-11T01:19:19.400Z,97830.28
2023-05-11T01:22:34.834Z,97832.97
2023-05-11T01:25:58.016Z,97829.13
2023-05-11T01:29:14.487Z,97832.22
2023-05-11T01:32:21.857Z,97830.59
2023-05-11T01:35:27.488Z,97834.81
2023-05-11T01:38:34.326Z,97832.44
2023-05-11T01:41:40.386Z,97826.41
2023-05-11T01:44:48.159Z,97822.41
2023-05-11T01:47:55.121Z,97834.38
2023-05-11T01:51:02.477Z,97837.31
2023-05-11T01:54:08.339Z,97832.44
2023-05-11T01:57:13.829Z,97770.06
2023-05-11T02:00:18.699Z,97831.06
2023-05-11T02:03:24.387Z,97827.72
2023-05-11T02:06:30.153Z,97834.00
2023-05-11T02:09:34.934Z,97822.53
2023-05-11T02:12:40.675Z,97813.81
2023-05-11T02:15:44.693Z,97824.38
2023-05-11T02:18:50.569Z,97827.91
2023-05-11T02:21:54.660Z,97823.03
2023-05-11T02:24:57.907Z,97824.88
2023-05-11T02:28:01.210Z,97820.59
2023-05-11T02:31:09.450Z,97828.72
2023-05-11T02:34:21.065Z,97826.13
2023-05-11T02:37:28.352Z,97817.09
2023-05-11T02:40:35.638Z,97818.19
2023-05-11T02:43:43.675Z,97816.41
2023-05-11T02:46:50.837Z,97822.44
2023-05-11T02:49:58.440Z,97816.34
2023-05-11T02:53:08.922Z,97819.66
2023-05-11T02:56:12.753Z,97820.50
2023-05-11T02:59:16.637Z,97817.25
2023-05-11T03:02:20.175Z,97817.50
2023-05-11T03:05:25.258Z,97811.41
2023-05-11T03:08:28.808Z,97811.41
2023-05-11T03:11:32.118Z,97817.13
2023-05-11T03:14:36.178Z,97809.50
2023-05-11T03:17:41.771Z,97810.34
2023-05-11T03:20:51.072Z,97814.91
2023-05-11T03:23:55.120Z,97809.56
2023-05-11T03:26:58.868Z,97814.75
2023-05-11T03:30:06.699Z,97794.97
2023-05-11T03:34:41.774Z,97806.28
2023-05-11T03:37:51.221Z,97804.56
2023-05-11T03:40:57.107Z,97780.50
2023-05-11T03:44:04.140Z,97797.69
2023-05-11T03:47:08.850Z,97797.63
2023-05-11T03:50:15.697Z,97803.97
2023-05-11T03:53:20.754Z,97787.78
2023-05-11T03:56:24.896Z,97805.25
2023-05-11T03:59:28.112Z,97799.81
2023-05-11T04:02:31.382Z,97787.25
2023-05-11T04:05:36.517Z,97795.03
2023-05-11T04:08:42.490Z,97793.22
2023-05-11T04:11:45.635Z,97792.91
2023-05-11T04:14:48.764Z,97787.72
2023-05-11T04:17:52.072Z,97779.41
2023-05-11T04:20:56.904Z,97792.53
2023-05-11T04:24:00.013Z,97792.59
2023-05-11T04:27:03.951Z,97797.50
2023-05-11T04:30:08.307Z,97812.41
2023-05-11T04:33:12.509Z,97801.97
2023-05-11T04:36:17.343Z,97803.19
2023-05-11T04:39:21.845Z,97810.44
2023-05-11T04:42:25.137Z,97795.03
2023-05-11T04:45:31.149Z,97804.81
2023-05-11T04:48:34.485Z,97805.53
2023-05-11T04:51:39.558Z,97806.84
2023-05-11T04:54:43.172Z,97803.41
2023-05-11T04:57:46.266Z,97799.44
2023-05-11T05:00:49.599Z,97798.66
2023-05-11T05:03:52.762Z,97798.63
2023-05-11T05:06:57.431Z,97806.56
2023-05-11T05:10:00.715Z,97739.47
2023-05-11T05:13:03.967Z,97807.31
2023-05-11T05:16:07.734Z,97807.81
2023-05-11T05:19:12.776Z,97802.34
2023-05-11T05:22:18.064Z,97812.63
2023-05-11T05:25:21.526Z,97817.56
2023-05-11T05:28:24.841Z,97817.41
2023-05-11T05:31:28.222Z,97821.69
2023-05-11T05:34:31.466Z,97826.28
2023-05-11T05:37:37.515Z,97835.28
2023-05-11T05:40:41.592Z,97829.38
2023-05-11T05:43:45.078Z,97827.50
2023-05-11T05:46:49.188Z,97835.59
2023-05-11T05:49:52.675Z,97835.94
2023-05-11T05:52:57.792Z,97844.19
2023-05-11T05:56:02.519Z,97836.72
2023-05-11T05:59:10.806Z,97840.31
2023-05-11T06:02:15.012Z,97842.72
2023-05-11T06:05:18.261Z,97843.56
2023-05-11T06:08:22.953Z,97836.50
2023-05-11T06:11:27.381Z,97838.91
2023-05-11T06:14:31.564Z,97836.22
2023-05-11T06:17:34.878Z,97843.31
2023-05-11T06:20:38.380Z,97843.06
2023-05-11T06:23:43.698Z,97842.13
2023-05-11T06:26:47.074Z,97844.66
2023-05-11T06:29:51.839Z,97844.09
2023-05-11T06:32:55.633Z,97841.50
2023-05-11T06:35:59.552Z,97843.25
2023-05-11T06:39:06.902Z,97838.47
2023-05-11T06:42:10.454Z,97834.78
2023-05-11T06:45:13.908Z,97841.88
2023-05-11T06:48:19.904Z,97847.81
2023-05-11T06:51:24.084Z,97840.88
2023-05-11T06:54:28.629Z,97842.44
2023-05-11T06:57:31.780Z,97840.75
2023-05-11T07:00:35.432Z,97839.09
2023-05-11T07:03:38.572Z,97837.44
2023-05-11T07:06:41.770Z,97843.41
2023-05-11T07:09:46.261Z,97844.09
2023-05-11T07:12:49.961Z,97847.28
2023-05-11T07:15:54.666Z,97846.16
2023-05-11T07:18:59.792Z,97847.34
2023-05-11T07:22:03.018Z,97843.06
2023-05-11T07:25:09.679Z,97846.06
2023-05-11T07:28:12.957Z,97847.25
2023-05-11T07:31:16.142Z,97846.50
2023-05-11T07:34:19.324Z,97838.34
2023-05-11T07:37:22.504Z,97831.81
2023-05-11T07:40:27.327Z,97847.34
2023-05-11T07:43:30.689Z,97857.09
2023-05-11T07:46:33.901Z,97860.34
2023-05-11T07:49:43.408Z,97848.59
2023-05-11T07:52:47.427Z,97853.00
2023-05-11T07:55:51.952Z,97849.41
2023-05-11T07:58:55.092Z,97851.38
2023-05-11T08:01:58.389Z,97849.63
2023-05-11T08:05:01.833Z,97847.94
2023-05-11T08:08:05.697Z,97853.63
2023-05-11T08:11:10.476Z,97847.50
2023-05-11T08:14:13.678Z,97854.25
2023-05-11T08:17:16.902Z,97855.13
2023-05-11T08:20:20.355Z,97862.34
2023-05-11T08:23:23.512Z,97865.13
2023-05-11T08:26:28.311Z,97856.13
2023-05-11T08:29:31.622Z,97856.34
2023-05-11T08:32:46.646Z,97858.50
2023-05-11T08:35:58.707Z,97856.53
2023-05-11T08:39:02.083Z,97852.88
2023-05-11T08:42:07.460Z,97851.19
2023-05-11T08:45:12.384Z,97849.00
2023-05-11T08:48:17.784Z,97845.19
2023-05-11T08:51:21.038Z,97849.56
2023-05-11T08:54:24.357Z,97857.00
2023-05-11T08:57:32.281Z,97849.00
2023-05-11T09:00:35.997Z,97851.59
2023-05-11T09:03:41.055Z,97862.63
2023-05-11T09:06:44.641Z,97850.06
2023-05-11T09:09:48.440Z,97851.91
2023-05-11T09:12:53.077Z,97852.91
2023-05-11T09:15:56.227Z,97851.50
2023-05-11T09:19:01.808Z,97852.56
2023-05-11T09:22:06.331Z,97847.88
2023-05-11T09:25:12.537Z,97852.88
2023-05-11T09:28:25.569Z,97856.56
2023-05-11T09:34:43.097Z,97858.34
2023-05-11T09:37:58.988Z,97826.78
2023-05-11T09:41:03.261Z,97857.25
2023-05-11T09:44:12.049Z,97850.75
2023-05-11T09:47:17.518Z,97844.88
2023-05-11T09:50:26.482Z,97856.59
2023-05-11T09:53:43.252Z,97819.56
2023-05-11T09:56:48.552Z,97847.91
2023-05-11T09:59:52.172Z,97848.03
2023-05-11T10:03:03.569Z,97836.16
2023-05-11T10:06:08.860Z,97820.44
2023-05-11T10:09:12.588Z,97841.53
2023-05-11T10:12:16.083Z,97841.03
2023-05-11T10:15:25.111Z,97835.47
2023-05-11T10:18:28.577Z,97832.97
2023-05-11T10:21:34.800Z,97818.16
2023-05-11T10:24:38.129Z,97819.00
2023-05-11T10:27:42.115Z,97826.13
2023-05-11T10:30:46.848Z,97820.50
2023-05-11T10:33:51.539Z,97817.72
2023-05-11T10:36:57.474Z,97822.00
2023-05-11T10:40:00.846Z,97815.69
2023-05-11T10:43:32.363Z,97824.91
2023-05-11T10:46:47.431Z,97810.72
2023-05-11T10:50:14.406Z,97809.72
2023-05-11T10:53:41.139Z,97805.69
2023-05-11T10:57:01.339Z,97797.97
2023-05-11T11:00:19.870Z,97798.63
2023-05-11T11:03:23.857Z,97801.78
2023-05-11T11:06:29.297Z,97804.66
2023-05-11T11:09:51.854Z,97759.91
2023-05-11T11:13:03.443Z,97813.41
2023-05-11T11:16:10.576Z,97803.31
2023-05-11T11:19:39.448Z,97804.78
2023-05-11T11:22:46.798Z,97809.69
2023-05-11T11:25:55.061Z,97809.78
2023-05-11T11:29:13.488Z,97803.03
2023-05-11T11:32:26.320Z,97812.53
2023-05-11T11:35:48.705Z,97802.56
2023-05-11T11:38:59.957Z,97808.22
2023-05-11T11:42:06.619Z,97804.00
2023-05-11T11:45:31.064Z,97812.34
2023-05-11T11:48:36.269Z,97809.81
2023-05-11T11:51:40.610Z,97813.78
2023-05-11T11:54:46.425Z,97816.00
2023-05-11T11:57:52.464Z,97823.75
2023-05-11T12:00:57.508Z,97813.63
2023-05-11T12:04:50.960Z,97814.19
2023-05-11T12:07:54.382Z,97815.34
2023-05-11T12:10:58.626Z,97813.03
2023-05-11T12:14:03.712Z,97808.28
2023-05-11T12:17:13.441Z,97820.31
2023-05-11T12:20:18.369Z,97824.16
2023-05-11T12:23:21.974Z,97819.75
2023-05-11T12:26:27.396Z,97828.94
2023-05-11T12:29:32.206Z,97827.78
2023-05-11T12:32:35.408Z,97830.97
2023-05-11T12:35:40.486Z,97830.28
2023-05-11T12:38:47.534Z,97839.69
2023-05-11T12:41:52.331Z,97835.31
2023-05-11T12:44:57.247Z,97841.19
2023-05-11T12:48:01.625Z,97827.38
2023-05-11T12:51:05.269Z,97831.81
2023-05-11T12:54:08.516Z,97824.94
2023-05-11T12:57:24.926Z,97821.44
2023-05-11T13:00:29.543Z,97821.00
2023-05-11T13:03:35.388Z,97818.09
2023-05-11T13:06:39.340Z,97819.72
2023-05-11T13:09:43.023Z,97820.03
2023-05-11T13:12:50.319Z,97812.53
2023-05-11T13:15:54.851Z,97815.53
2023-05-11T13:18:59.720Z,97809.59
2023-05-11T13:22:02.953Z,97803.91
2023-05-11T13:25:08.971Z,97807.00
2023-05-11T13:28:12.903Z,97808.16
2023-05-11T13:31:17.737Z,97807.00
2023-05-11T13:34:21.366Z,97787.09
2023-05-11T13:37:24.596Z,97811.03
2023-05-11T13:40:27.825Z,97813.06
2023-05-11T13:43:30.973Z,97807.34
2023-05-11T13:46:36.117Z,97806.34
2023-05-11T13:49:39.447Z,97808.34
2023-05-11T13:52:42.806Z,97807.88
2023-05-11T13:55:45.950Z,97809.78
2023-05-11T13:58:49.296Z,97799.13
2023-05-11T14:01:53.996Z,97805.59
2023-05-11T14:04:57.197Z,97795.97
2023-05-11T14:08:00.740Z,97787.81
2023-05-11T14:11:03.866Z,97796.53
2023-05-11T14:14:11.142Z,97790.63
2023-05-11T14:17:16.755Z,97793.97
2023-05-11T14:20:20.340Z,97792.09
2023-05-11T14:23:23.827Z,97785.81
2023-05-11T14:26:26.993Z,97794.25
2023-05-11T14:29:30.894Z,97770.09
2023-05-11T14:32:35.710Z,97788.31
2023-05-11T14:35:40.021Z,97784.81
2023-05-11T14:38:43.234Z,97778.28
2023-05-11T14:41:46.688Z,97774.09
2023-05-11T14:44:49.886Z,97780.13
2023-05-11T14:47:54.562Z,97778.38
2023-05-11T14:50:58.243Z,97774.19
2023-05-11T14:54:01.400Z,97777.34
2023-05-11T14:57:05.726Z,97778.50
2023-05-11T15:00:10.193Z,97778.38
2023-05-11T15:03:14.867Z,97777.34
2023-05-11T15:06:21.538Z,97775.69
2023-05-11T15:09:25.310Z,97769.75
2023-05-11T15:12:31.454Z,97756.63
2023-05-11T15:15:34.593Z,97768.56
2023-05-11T15:18:40.459Z,97783.75
2023-05-11T15:21:44.694Z,97776.09
2023-05-11T15:24:47.827Z,97763.59
2023-05-11T15:27:51.575Z,97785.00
2023-05-11T15:34:51.189Z,97733.72
2023-05-11T15:37:58.561Z,97789.94
2023-05-11T15:41:02.069Z,97786.44
2023-05-11T15:44:10.105Z,97790.47
2023-05-11T15:47:13.236Z,97781.25
2023-05-11T15:50:17.982Z,97784.00
2023-05-11T15:53:21.198Z,97787.78
2023-05-11T15:56:24.475Z,97786.03
2023-05-11T15:59:27.884Z,97788.28
2023-05-11T16:02:31.083Z,97771.53
2023-05-11T16:05:36.224Z,97780.91
2023-05-11T16:08:39.428Z,97787.53
2023-05-11T16:11:43.569Z,97789.88
2023-05-11T16:14:46.717Z,97798.16
2023-05-11T16:17:51.792Z,97801.81
2023-05-11T16:20:56.349Z,97806.19
2023-05-11T16:23:59.681Z,97806.44
2023-05-11T16:27:02.941Z,97790.97
2023-05-11T16:30:21.717Z,97782.84
2023-05-11T16:33:27.369Z,97776.13
2023-05-11T16:36:32.129Z,97782.75
2023-05-11T16:39:35.229Z,97779.91
2023-05-11T16:42:38.404Z,97776.13
2023-05-11T16:45:41.560Z,97784.59
2023-05-11T16:48:45.359Z,97801.00
2023-05-11T16:51:49.931Z,97802.19
2023-05-11T16:54:53.810Z,97806.44
2023-05-11T16:57:57.034Z,97824.91
2023-05-11T17:01:00.289Z,97831.47
2023-05-11T17:04:03.873Z,97830.09
2023-05-11T17:07:11.341Z,97826.59
2023-05-11T17:10:14.789Z,97817.22
2023-05-11T17:13:18.172Z,97824.06
2023-05-11T17:16:21.336Z,97815.50
2023-05-11T17:19:24.911Z,97810.00
2023-05-11T17:22:30.407Z,97744.09
2023-05-11T17:25:33.625Z,97816.44
2023-05-11T17:28:36.884Z,97820.38
2023-05-11T17:31:40.804Z,97822.97
2023-05-11T17:34:44.152Z,97828.25
2023-05-11T17:37:48.681Z,97827.72
2023-05-11T17:40:51.906Z,97835.28
2023-05-11T17:43:55.084Z,97825.97
2023-05-11T17:46:58.300Z,97841.09
2023-05-11T17:50:01.535Z,97847.88
2023-05-11T17:53:06.080Z,97839.38
2023-05-11T17:56:11.698Z,97844.13
2023-05-11T17:59:15.043Z,97844.41
2023-05-11T18:02:18.413Z,97848.16
2023-05-11T18:05:26.091Z,97850.41
2023-05-11T18:08:36.483Z,97835.84
2023-05-11T18:11:40.023Z,97859.69
2023-05-11T18:14:45.146Z,97860.69
2023-05-11T18:17:49.031Z,97861.34
2023-05-11T18:20:52.211Z,97859.31
2023-05-11T18:23:57.148Z,97867.91
2023-05-11T18:27:00.311Z,97861.38
2023-05-11T18:30:03.827Z,97861.47
2023-05-11T18:33:07.227Z,97869.72
2023-05-11T18:36:11.371Z,97865.97
2023-05-11T18:39:16.361Z,97862.22
2023-05-11T18:42:20.108Z,97861.56
2023-05-11T18:45:23.252Z,97864.44
2023-05-11T18:48:26.557Z,97861.84
2023-05-11T18:51:30.477Z,97871.69
2023-05-11T18:54:35.184Z,97870.44
2023-05-11T18:57:39.598Z,97873.91
2023-05-11T19:00:42.993Z,97877.34
2023-05-11T19:03:46.176Z,97888.22
2023-05-11T19:06:49.917Z,97892.66
2023-05-11T19:09:54.611Z,97897.13
2023-05-11T19:12:57.961Z,97894.25
2023-05-11T19:16:01.272Z,97901.41
2023-05-11T19:19:04.617Z,97896.38
2023-05-11T19:22:09.252Z,97906.13
2023-05-11T19:25:14.626Z,97898.63
2023-05-11T19:28:18.460Z,97903.91
2023-05-11T19:31:22.691Z,97911.00
2023-05-11T19:34:26.313Z,97911.84
2023-05-11T19:37:29.494Z,97901.41
2023-05-11T19:43:41.987Z,97904.44
2023-05-11T19:46:47.212Z,97920.44
2023-05-11T19:49:50.635Z,97915.28
2023-05-11T19:52:54.412Z,97913.81
2023-05-11T19:55:59.617Z,97921.91
2023-05-11T19:59:04.508Z,97919.91
2023-05-11T20:02:08.487Z,97916.34
2023-05-11T20:05:11.749Z,97918.91
2023-05-11T20:08:14.893Z,97925.13
2023-05-11T20:11:19.517Z,97923.03
2023-05-11T20:14:22.843Z,97918.22
2023-05-11T20:17:26.079Z,97920.13
2023-05-11T20:20:29.400Z,97922.56
2023-05-11T20:23:32.516Z,97913.53
2023-05-11T20:26:37.664Z,97920.44
2023-05-11T20:29:40.817Z,97919.66
2023-05-11T20:35:53.085Z,97919.97
2023-05-11T20:38:56.511Z,97922.94
2023-05-11T20:42:01.006Z,97921.75
2023-05-11T20:45:07.308Z,97925.13
2023-05-11T20:48:10.834Z,97920.75
2023-05-11T20:51:14.630Z,97916.31
2023-05-11T20:54:18.140Z,97915.72
2023-05-11T20:57:22.717Z,97920.19
2023-05-11T21:00:26.187Z,97908.94
2023-05-11T21:03:29.431Z,97921.63
2023-05-11T21:06:32.937Z,97913.72
2023-05-11T21:09:36.114Z,97918.94
2023-05-11T21:12:40.744Z,97921.94
2023-05-11T21:15:44.016Z,97920.84
2023-05-11T21:18:47.571Z,97914.09
2023-05-11T21:21:50.802Z,97912.41
2023-05-11T21:24:54.112Z,97918.47
2023-05-11T21:28:00.622Z,97916.44
2023-05-11T21:34:41.270Z,97913.41
2023-05-11T21:37:49.019Z,97912.88
2023-05-11T21:40:52.729Z,97912.47
2023-05-11T21:43:55.875Z,97917.34
2023-05-11T21:46:59.035Z,97910.09
2023-05-11T21:50:03.784Z,97916.75
2023-05-11T21:53:06.905Z,97917.03
2023-05-11T21:56:10.105Z,97916.59
2023-05-11T21:59:16.482Z,97912.06
2023-05-11T22:02:19.759Z,97917.34
2023-05-11T22:05:24.266Z,97921.69
2023-05-11T22:08:27.403Z,97917.66
2023-05-11T22:11:30.622Z,97920.41
2023-05-11T22:14:33.855Z,97918.84
2023-05-11T22:17:37.454Z,97923.59
2023-05-11T22:20:42.003Z,97925.97
2023-05-11T22:23:45.122Z,97923.66
2023-05-11T22:26:48.295Z,97926.94
2023-05-11T22:29:52.175Z,97921.50
2023-05-11T22:32:55.671Z,97924.84
2023-05-11T22:36:00.225Z,97928.16
2023-05-11T22:39:05.550Z,97923.16
2023-05-11T22:42:08.816Z,97920.44
2023-05-11T22:45:12.408Z,97920.44
2023-05-11T22:48:15.518Z,97922.28
2023-05-11T22:51:19.929Z,97928.19
2023-05-11T22:54:23.077Z,97925.88
2023-05-11T22:57:26.877Z,97938.44
2023-05-11T23:00:31.265Z,97919.91
2023-05-11T23:03:34.434Z,97922.31
2023-05-11T23:06:38.906Z,97927.47
2023-05-11T23:09:42.301Z,97920.19
2023-05-11T23:12:45.426Z,97918.59
2023-05-11T23:15:48.493Z,97924.44
2023-05-11T23:18:51.901Z,97927.97
2023-05-11T23:21:56.625Z,97919.94
2023-05-11T23:25:00.355Z,97921.53
2023-05-11T23:28:03.500Z,97921.72
2023-05-11T23:31:06.671Z,97923.09
2023-05-11T23:34:09.823Z,97917.59
2023-05-11T23:37:14.352Z,97917.91
2023-05-11T23:40:18.752Z,97898.75
2023-05-11T23:43:23.089Z,97910.94
2023-05-11T23:46:26.186Z,97903.38
2023-05-11T23:49:29.402Z,97912.41
2023-05-11T23:52:34.361Z,97906.81
2023-05-11T23:55:38.053Z,97911.41
2023-05-11T23:58:45.455Z,97889.97
